Time;durP1;ratioP1;P1;durP2;ratioP2;P2;SDS_P1;SDS_P2;PMS_P1;PMS_P2;Temp;Humidity;BMP_temperature;BMP_pressure;BME280_temperature;BME280_humidity;BME280_pressure;Samples;Min_cycle;Max_cycle;Signal;HPM_P1;HPM_P2
2022/04/25 00:03:52;;;;;;;27.20;17.83;;;;;;;8.83;100.00;97916.78;8502660;27;20046;-74
2022/04/25 00:07:52;;;;;;;31.17;19.60;;;;;;;8.77;100.00;97920.81;8505707;27;20169;-74
2022/04/25 00:11:53;;;;;;;27.30;18.65;;;;;;;8.78;100.00;97914.28;8480062;27;20058;-74
2022/04/25 00:15:55;;;;;;;25.80;16.80;;;;;;;8.76;100.00;97916.53;8511123;27;20037;-73
2022/04/25 00:19:56;;;;;;;22.65;14.77;;;;;;;8.73;100.00;97921.75;8527022;27;20050;-74
2022/04/25 00:23:57;;;;;;;21.67;14.13;;;;;;;8.75;100.00;97925.72;8521693;27;20073;-73
2022/04/25 00:27:59;;;;;;;17.77;13.00;;;;;;;8.74;100.00;97924.13;8472585;27;20039;-73
2022/04/25 00:32:00;;;;;;;17.13;12.13;;;;;;;8.74;100.00;97934.91;8502226;27;20051;-74
2022/04/25 00:36:03;;;;;;;15.63;10.80;;;;;;;8.72;100.00;97925.59;8518678;27;20223;-73
2022/04/25 00:40:04;;;;;;;17.27;9.52;;;;;;;8.69;100.00;97921.63;8446831;27;20039;-73
2022/04/25 00:44:05;;;;;;;12.55;8.48;;;;;;;8.64;100.00;97918.31;8527205;27;20053;-73
2022/04/25 00:48:06;;;;;;;15.40;10.05;;;;;;;8.62;100.00;97918.66;8521811;27;20043;-73
2022/04/25 00:52:07;;;;;;;15.70;9.98;;;;;;;8.61;100.00;97919.78;8470953;27;20042;-73
2022/04/25 00:56:09;;;;;;;16.00;9.77;;;;;;;8.60;100.00;97918.19;8514401;27;20043;-74
2022/04/25 01:00:11;;;;;;;12.48;9.18;;;;;;;8.61;100.00;97930.53;8510908;27;20043;-73
2022/04/25 01:04:12;;;;;;;11.23;8.35;;;;;;;8.63;100.00;97922.91;8513958;27;20047;-75
2022/04/25 01:08:14;;;;;;;16.77;9.50;;;;;;;8.62;100.00;97921.34;8518535;27;20043;-73
2022/04/25 01:12:14;;;;;;;11.88;8.60;;;;;;;8.57;100.00;97929.59;8517855;27;20126;-73
2022/04/25 01:16:15;;;;;;;12.32;9.38;;;;;;;8.56;100.00;97922.66;8493180;27;20567;-74
2022/04/25 01:20:16;;;;;;;13.18;8.80;;;;;;;8.52;100.00;97921.69;8525923;27;20039;-74
2022/04/25 01:28:37;;;;;;;18.38;9.90;;;;;;;8.52;100.00;97921.69;8515523;27;20039;-74
2022/04/25 01:32:38;;;;;;;12.48;9.30;;;;;;;8.51;100.00;97914.75;8504449;27;21702;-74
2022/04/25 01:36:39;;;;;;;12.65;9.63;;;;;;;8.49;100.00;97922.38;8513368;27;20038;-74
2022/04/25 01:40:40;;;;;;;13.48;9.98;;;;;;;8.47;100.00;97913.81;8510946;27;20046;-73
2022/04/25 01:44:41;;;;;;;10.95;8.50;;;;;;;8.42;100.00;97928.22;8521072;27;20061;-74
2022/04/25 01:48:42;;;;;;;11.73;9.40;;;;;;;8.40;100.00;97927.00;8509278;27;20107;-74
2022/04/25 01:52:43;;;;;;;11.10;8.10;;;;;;;8.42;100.00;97922.06;8509061;27;20100;-74
2022/04/25 01:56:45;;;;;;;10.98;8.43;;;;;;;8.39;100.00;97922.72;8491739;27;20070;-74
2022/04/25 02:00:46;;;;;;;11.15;7.75;;;;;;;8.41;100.00;97931.25;8506889;27;20043;-74
2022/04/25 02:04:47;;;;;;;13.30;7.72;;;;;;;8.44;100.00;97919.84;8503586;27;20043;-75
2022/04/25 02:08:48;;;;;;;11.60;7.43;;;;;;;8.35;100.00;97921.78;8505234;27;20050;-74
2022/04/25 02:12:49;;;;;;;17.35;8.70;;;;;;;8.33;100.00;97924.00;8479825;27;20047;-74
2022/04/25 02:16:49;;;;;;;15.02;7.97;;;;;;;8.33;100.00;97924.00;8497375;27;20126;-74
2022/04/25 02:20:50;;;;;;;10.05;7.55;;;;;;;8.33;100.00;97924.00;8519764;27;20272;-74
2022/04/25 02:24:51;;;;;;;14.80;8.35;;;;;;;8.30;100.00;97924.66;8470203;27;20356;-74
2022/04/25 02:28:54;;;;;;;17.00;8.93;;;;;;;8.33;100.00;97929.38;8501194;27;20047;-75
2022/04/25 02:32:55;;;;;;;16.15;9.60;;;;;;;8.24;100.00;97936.69;8521038;27;20130;-74
2022/04/25 02:36:56;;;;;;;11.88;8.32;;;;;;;8.17;100.00;97931.00;8527197;27;20035;-75
2022/04/25 02:41:06;;;;;;;13.63;9.02;;;;;;;8.25;100.00;97938.25;8462979;27;20444;-74
2022/04/25 02:45:11;;;;;;;12.80;8.88;;;;;;;8.11;100.00;97938.44;8476581;27;20831;-74
2022/04/25 02:49:12;;;;;;;10.70;8.13;;;;;;;8.09;100.00;97939.88;8437414;27;20410;-73
2022/04/25 02:53:13;;;;;;;12.27;9.07;;;;;;;8.02;100.00;97941.16;8455483;27;20056;-74
2022/04/25 02:57:14;;;;;;;12.93;9.35;;;;;;;8.02;100.00;97946.53;8474865;27;20104;-74
2022/04/25 03:01:15;;;;;;;16.15;9.85;;;;;;;7.97;100.00;97944.03;8491312;27;20054;-74
2022/04/25 03:05:16;;;;;;;15.07;8.88;;;;;;;7.92;100.00;97941.50;8491887;27;20039;-74
2022/04/25 03:09:18;;;;;;;13.38;8.63;;;;;;;7.89;100.00;97947.50;8463133;27;20047;-74
2022/04/25 03:13:20;;;;;;;16.48;9.13;;;;;;;7.89;100.00;97947.50;8469787;27;20053;-74
2022/04/25 03:17:21;;;;;;;14.82;9.82;;;;;;;7.87;100.00;97955.09;8488934;27;20047;-73
2022/04/25 03:21:21;;;;;;;14.25;9.00;;;;;;;7.84;100.00;97961.09;8485527;27;20502;-74
2022/04/25 03:25:23;;;;;;;12.98;9.25;;;;;;;7.81;100.00;97961.75;8483268;27;20047;-74
2022/04/25 03:29:23;;;;;;;13.23;8.90;;;;;;;7.82;100.00;97974.09;8471087;27;20082;-74
2022/04/25 03:33:25;;;;;;;14.30;9.02;;;;;;;7.80;100.00;97964.75;8460537;27;20051;-74
2022/04/25 03:37:26;;;;;;;11.77;8.18;;;;;;;7.80;100.00;97976.28;8463495;27;20052;-73
2022/04/25 03:41:31;;;;;;;13.30;9.02;;;;;;;7.78;100.00;97977.69;8491012;27;20051;-74
2022/04/25 03:45:32;;;;;;;11.38;9.20;;;;;;;7.75;100.00;97984.50;8495532;27;20051;-74
2022/04/25 03:49:34;;;;;;;13.52;9.43;;;;;;;7.76;100.00;97980.72;8442884;27;20042;-73
2022/04/25 03:53:38;;;;;;;10.45;8.20;;;;;;;7.72;100.00;97985.13;8506166;27;20043;-74
2022/04/25 03:57:39;;;;;;;15.23;9.90;;;;;;;7.73;100.00;97997.47;8516845;27;20053;-74
2022/04/25 04:01:40;;;;;;;14.30;10.05;;;;;;;7.69;100.00;98004.59;8497076;27;20051;-75
2022/04/25 04:05:42;;;;;;;14.52;8.65;;;;;;;7.70;100.00;97998.13;8527111;27;20046;-74
2022/04/25 04:09:45;;;;;;;17.42;9.57;;;;;;;7.66;100.00;98007.91;8516529;27;20049;-74
2022/04/25 04:13:47;;;;;;;17.17;9.68;;;;;;;7.67;100.00;98020.22;8525983;27;20178;-73
2022/04/25 04:17:48;;;;;;;30.55;11.93;;;;;;;7.69;100.00;98023.41;8494527;27;20095;-73
2022/04/25 04:21:50;;;;;;;17.25;10.43;;;;;;;7.66;100.00;98024.03;8514683;27;20042;-79
2022/04/25 04:25:50;;;;;;;18.05;10.82;;;;;;;7.67;100.00;98030.97;8469678;27;20039;-74
2022/04/25 04:29:51;;;;;;;14.63;9.55;;;;;;;7.68;100.00;98048.69;8501226;27;20487;-73
2022/04/25 04:33:52;;;;;;;16.80;9.60;;;;;;;7.62;100.00;98045.34;8501194;27;20110;-74
2022/04/25 04:37:53;;;;;;;12.75;8.70;;;;;;;7.60;100.00;98057.53;8500922;27;20043;-74
2022/04/25 04:41:54;;;;;;;13.52;8.93;;;;;;;7.64;100.00;98058.50;8500612;27;20067;-74
2022/04/25 04:45:55;;;;;;;14.07;8.98;;;;;;;7.63;100.00;98067.66;8500638;27;20043;-75
2022/04/25 04:49:56;;;;;;;14.93;9.85;;;;;;;7.59;100.00;98072.06;8500986;27;20434;-74
2022/04/25 04:54:01;;;;;;;16.23;9.73;;;;;;;7.62;100.00;98074.13;8500747;27;20529;-74
2022/04/25 04:58:02;;;;;;;13.10;9.43;;;;;;;7.61;100.00;98075.25;8500243;27;20415;-74
2022/04/25 05:02:05;;;;;;;13.93;10.25;;;;;;;7.64;100.00;98079.97;8447154;27;20039;-74
2022/04/25 05:06:06;;;;;;;13.25;9.85;;;;;;;7.61;100.00;98083.31;8446965;27;20047;-74
2022/04/25 05:10:11;;;;;;;14.90;10.20;;;;;;;7.63;100.00;98083.78;8500165;27;20039;-74
2022/04/25 05:14:14;;;;;;;17.80;10.27;;;;;;;7.67;100.00;98090.09;8499627;27;20053;-74
2022/04/25 05:18:15;;;;;;;18.33;10.77;;;;;;;7.72;100.00;98098.00;8499872;27;20051;-74
2022/04/25 05:22:17;;;;;;;13.43;9.98;;;;;;;7.69;100.00;98104.03;8499967;27;20126;-74
2022/04/25 05:26:18;;;;;;;16.77;11.18;;;;;;;7.67;100.00;98108.91;8499746;27;20089;-74
2022/04/25 05:30:20;;;;;;;19.42;11.52;;;;;;;7.72;100.00;98106.06;8499290;27;20074;-74
2022/04/25 05:34:21;;;;;;;16.17;11.45;;;;;;;7.74;100.00;98111.94;8499045;27;20051;-75
2022/04/25 05:38:22;;;;;;;15.55;11.70;;;;;;;7.73;100.00;98121.09;8498660;27;20142;-73
2022/04/25 05:42:23;;;;;;;18.23;13.32;;;;;;;7.72;100.00;98114.13;8498952;27;20043;-74
2022/04/25 05:46:24;;;;;;;16.50;12.65;;;;;;;7.69;100.00;98120.13;8462432;27;20047;-73
2022/04/25 05:54:46;;;;;;;18.98;12.70;;;;;;;7.65;100.00;98129.94;8498808;27;20066;-75
2022/04/25 05:58:47;;;;;;;17.88;13.27;;;;;;;7.60;100.00;98130.88;8498844;27;20423;-74
2022/04/25 06:02:48;;;;;;;19.80;13.85;;;;;;;7.60;100.00;98148.91;8479906;27;20130;-74
2022/04/25 06:06:49;;;;;;;16.02;12.00;;;;;;;7.56;100.00;98147.94;8498313;27;20488;-73
2022/04/25 06:10:50;;;;;;;16.50;11.95;;;;;;;7.55;100.00;98151.72;8498142;27;20058;-73
2022/04/25 06:14:53;;;;;;;19.70;12.20;;;;;;;7.46;100.00;98158.94;8479959;27;20047;-73
2022/04/25 06:19:14;;;;;;;18.20;12.65;;;;;;;7.49;100.00;98164.50;8392272;28;20051;-74
2022/04/25 06:23:15;;;;;;;18.30;13.50;;;;;;;7.41;100.00;98161.78;8392350;28;20469;-73
2022/04/25 06:27:16;;;;;;;19.92;13.00;;;;;;;7.40;100.00;98171.72;8392244;28;20090;-74
2022/04/25 06:31:17;;;;;;;16.25;11.98;;;;;;;7.37;100.00;98176.94;8391821;28;20048;-74
2022/04/25 06:35:18;;;;;;;20.27;13.02;;;;;;;7.37;100.00;98179.63;8391763;28;20036;-74
2022/04/25 06:39:19;;;;;;;19.23;12.43;;;;;;;7.40;100.00;98181.69;8391588;28;20052;-73
2022/04/25 06:43:20;;;;;;;18.17;13.32;;;;;;;7.44;100.00;98185.34;8391681;28;20055;-73
2022/04/25 06:47:22;;;;;;;20.33;14.65;;;;;;;7.43;100.00;98181.06;8341493;28;20052;-73
2022/04/25 06:51:22;;;;;;;19.25;13.82;;;;;;;7.31;100.00;98187.03;8427714;28;20501;-74
2022/04/25 06:55:23;;;;;;;23.55;16.92;;;;;;;7.36;100.00;98194.16;8409727;28;20770;-74
2022/04/25 06:59:24;;;;;;;30.85;20.38;;;;;;;7.33;100.00;98197.47;8410435;28;20411;-74
2022/04/25 07:03:25;;;;;;;23.77;16.15;;;;;;;7.25;100.00;98206.25;8460979;28;20050;-74
2022/04/25 07:07:26;;;;;;;23.90;16.70;;;;;;;7.15;100.00;98202.75;8462255;28;20426;-73
2022/04/25 07:11:28;;;;;;;21.35;15.35;;;;;;;7.15;100.00;98200.06;8442782;28;20059;-74
2022/04/25 07:15:29;;;;;;;20.50;14.68;;;;;;;7.15;100.00;98208.09;8462029;28;20048;-74
2022/04/25 07:19:31;;;;;;;27.90;15.85;;;;;;;7.15;100.00;98208.09;8461551;28;20055;-74
2022/04/25 07:32:10;;;;;;;27.13;16.98;;;;;;;7.09;100.00;98230.81;8461309;28;20054;-74
2022/04/25 07:36:17;;;;;;;25.23;16.92;;;;;;;7.11;100.00;98234.00;8460297;28;20467;-73
2022/04/25 07:40:18;;;;;;;27.20;17.42;;;;;;;7.20;100.00;98248.25;8478882;27;20059;-74
2022/04/25 07:44:19;;;;;;;26.70;17.27;;;;;;;7.15;100.00;98251.06;8494886;27;20085;-74
2022/04/25 07:48:23;;;;;;;35.88;20.58;;;;;;;7.21;100.00;98254.44;8441394;27;20040;-74
2022/04/25 07:52:24;;;;;;;24.55;16.92;;;;;;;7.26;100.00;98261.56;8495000;27;20122;-74
2022/04/25 07:56:26;;;;;;;26.77;17.75;;;;;;;7.24;100.00;98269.16;8476751;27;20039;-74
2022/04/25 08:00:27;;;;;;;28.38;18.48;;;;;;;7.23;100.00;98268.34;8520981;27;20397;-74
2022/04/25 08:04:29;;;;;;;27.30;17.52;;;;;;;7.31;100.00;98269.47;8528843;27;20050;-74
2022/04/25 08:08:32;;;;;;;23.05;16.73;;;;;;;7.34;100.00;98279.63;8528835;27;20046;-74
2022/04/25 08:21:14;;;;;;;29.90;17.20;;;;;;;7.33;100.00;98294.16;8528939;27;20468;-74
2022/04/25 08:25:16;;;;;;;26.23;16.50;;;;;;;7.38;100.00;98302.09;8492544;27;20057;-73
2022/04/25 08:29:17;;;;;;;26.33;18.15;;;;;;;7.29;100.00;98304.72;8528018;27;20043;-73
2022/04/25 08:33:20;;;;;;;29.58;19.52;;;;;;;7.33;100.00;98315.63;8528467;27;20047;-72
2022/04/25 08:37:21;;;;;;;28.02;16.92;;;;;;;7.44;100.00;98316.97;8528172;27;20057;-73
2022/04/25 08:41:29;;;;;;;24.90;15.23;;;;;;;7.43;100.00;98315.38;8528258;27;20089;-74
2022/04/25 08:45:31;;;;;;;27.27;16.70;;;;;;;7.41;100.00;98328.31;8509751;27;20280;-74
2022/04/25 08:49:32;;;;;;;24.05;17.08;;;;;;;7.35;100.00;98329.56;8528542;27;20046;-73
2022/04/25 08:53:34;;;;;;;22.25;15.77;;;;;;;7.44;100.00;98333.09;8527926;27;20070;-73
2022/04/25 08:57:36;;;;;;;28.77;15.82;;;;;;;7.43;100.00;98331.50;8509611;27;20395;-73
2022/04/25 09:01:40;;;;;;;22.70;15.88;;;;;;;7.48;100.00;98350.97;8528025;27;20181;-73
2022/04/25 09:05:41;;;;;;;20.70;14.23;;;;;;;7.52;100.00;98351.16;8508375;27;20047;-73
2022/04/25 09:09:43;;;;;;;19.17;12.85;;;;;;;7.52;100.00;98356.53;8457570;27;20050;-73
2022/04/25 09:13:45;;;;;;;21.98;13.70;;;;;;;7.60;100.00;98353.13;8478555;27;20531;-74
2022/04/25 09:17:47;;;;;;;20.00;13.65;;;;;;;7.65;100.00;98361.03;8515821;27;20129;-74
2022/04/25 09:21:48;;;;;;;20.60;13.43;;;;;;;7.70;100.00;98368.97;8534633;27;20054;-74
2022/04/25 09:26:09;;;;;;;19.60;13.05;;;;;;;7.58;100.00;98371.41;8534005;27;20412;-73
2022/04/25 09:30:21;;;;;;;18.92;12.98;;;;;;;7.71;100.00;98380.53;8534096;27;20066;-75
2022/04/25 09:38:43;;;;;;;26.92;17.00;;;;;;;7.72;100.00;98393.63;8515460;27;20066;-73
2022/04/25 09:42:46;;;;;;;20.15;14.77;;;;;;;7.76;100.00;98389.25;8533718;27;20111;-73
2022/04/25 09:46:47;;;;;;;21.45;15.32;;;;;;;7.80;100.00;98406.34;8533264;27;20133;-73
2022/04/25 09:51:03;;;;;;;21.90;15.05;;;;;;;7.82;100.00;98404.16;8533082;27;20515;-74
2022/04/25 09:55:16;;;;;;;27.17;16.17;;;;;;;7.75;100.00;98403.78;8533560;27;20043;-74
2022/04/25 09:59:18;;;;;;;24.95;17.17;;;;;;;7.86;100.00;98405.13;8532946;27;20047;-74
2022/04/25 10:03:34;;;;;;;26.17;16.60;;;;;;;7.85;100.00;98406.22;8533063;27;20043;-74
2022/04/25 10:07:35;;;;;;;25.63;17.10;;;;;;;7.82;100.00;98411.44;8532765;27;20131;-73
2022/04/25 10:11:40;;;;;;;24.92;16.15;;;;;;;7.87;100.00;98412.09;8532644;27;20049;-74
2022/04/25 10:15:42;;;;;;;25.67;17.73;;;;;;;7.92;100.00;98414.66;8532656;27;20523;-74
2022/04/25 10:19:43;;;;;;;26.00;16.17;;;;;;;8.07;100.00;98421.53;8532619;27;20042;-74
2022/04/25 10:23:45;;;;;;;27.52;18.13;;;;;;;8.05;100.00;98424.50;8531258;27;20062;-74
2022/04/25 10:27:47;;;;;;;24.45;16.55;;;;;;;8.11;99.81;98427.06;8513549;27;20042;-75
2022/04/25 10:31:48;;;;;;;27.58;17.48;;;;;;;8.05;99.85;98429.91;8532149;27;20046;-74
2022/04/25 10:35:51;;;;;;;25.38;18.30;;;;;;;8.11;99.77;98437.81;8531876;27;20131;-74
2022/04/25 10:39:52;;;;;;;25.40;15.98;;;;;;;8.09;99.89;98440.06;8513386;27;20137;-73
2022/04/25 10:48:24;;;;;;;31.65;19.58;;;;;;;8.18;99.19;98446.25;8425191;28;20051;-73
2022/04/25 10:52:32;;;;;;;27.65;18.08;;;;;;;8.17;99.68;98458.91;8391499;28;20097;-73
2022/04/25 10:56:35;;;;;;;29.30;19.42;;;;;;;8.16;99.74;98457.31;8425159;28;20429;-73
2022/04/25 11:00:36;;;;;;;28.33;18.20;;;;;;;8.19;99.92;98466.69;8407728;28;20044;-73
2022/04/25 11:04:39;;;;;;;31.35;19.58;;;;;;;8.18;99.42;98471.25;8424551;28;20127;-74
2022/04/25 11:08:49;;;;;;;28.55;18.65;;;;;;;8.15;99.37;98476.44;8424663;28;20052;-73
2022/04/25 11:13:00;;;;;;;34.90;21.00;;;;;;;8.14;99.99;98485.63;8424509;28;20093;-73
2022/04/25 11:17:12;;;;;;;39.88;19.75;;;;;;;8.07;99.58;98494.13;8340775;28;20056;-73
2022/04/25 11:21:18;;;;;;;28.20;19.25;;;;;;;8.07;99.90;98497.63;8357633;28;20065;-73
2022/04/25 11:25:29;;;;;;;30.77;21.40;;;;;;;8.06;100.00;98506.78;8409991;28;20550;-74
2022/04/25 11:29:30;;;;;;;34.08;19.05;;;;;;;8.06;99.84;98517.53;8424059;28;20055;-73
2022/04/25 11:33:40;;;;;;;30.92;19.38;;;;;;;8.10;99.53;98517.72;8423967;28;20044;-74
2022/04/25 11:37:42;;;;;;;32.60;20.08;;;;;;;8.21;99.46;98518.25;8389565;28;20060;-73
2022/04/25 11:41:45;;;;;;;39.38;20.73;;;;;;;8.32;99.32;98530.38;8390354;28;20078;-74
2022/04/25 11:45:46;;;;;;;33.67;21.20;;;;;;;8.43;98.24;98534.41;8433227;27;20485;-74
2022/04/25 11:49:54;;;;;;;31.83;20.90;;;;;;;8.43;98.04;98537.09;8458860;27;20047;-74
2022/04/25 11:53:57;;;;;;;40.83;23.00;;;;;;;8.40;98.10;98548.50;8477029;27;20054;-75
2022/04/25 11:57:58;;;;;;;38.42;21.55;;;;;;;8.39;98.85;98552.28;8495172;27;20035;-74
2022/04/25 12:01:59;;;;;;;37.38;22.80;;;;;;;8.43;98.81;98547.88;8495099;27;20050;-75
2022/04/25 12:06:11;;;;;;;36.53;23.40;;;;;;;8.32;99.03;98557.28;8494631;27;20039;-74
2022/04/25 12:18:51;;;;;;;;;;;;;;;7.87;100.00;98568.00;8479691;27;20108;-73
2022/04/25 12:22:55;;;;;;;41.85;27.33;;;;;;;7.88;100.00;98574.97;8494382;27;19923;-74
2022/04/25 12:26:56;;;;;;;50.10;28.70;;;;;;;7.83;100.00;98572.38;8476396;28;20070;-75
2022/04/25 12:31:08;;;;;;;50.28;30.48;;;;;;;7.86;100.00;98587.94;8458100;28;20055;-74
2022/04/25 12:35:19;;;;;;;51.28;29.60;;;;;;;7.94;100.00;98589.09;8494311;28;20489;-75
2022/04/25 12:39:20;;;;;;;48.30;28.98;;;;;;;8.07;100.00;98589.06;8494236;28;20051;-74
2022/04/25 12:43:38;;;;;;;42.75;29.13;;;;;;;8.13;99.55;98591.63;8494162;28;20043;-74
2022/04/25 12:47:45;;;;;;;46.70;28.73;;;;;;;8.21;99.36;98593.56;8496616;27;20046;-74
2022/04/25 12:51:50;;;;;;;40.58;28.40;;;;;;;8.20;99.21;98597.34;8464332;27;20058;-75
2022/04/25 12:55:51;;;;;;;40.67;26.15;;;;;;;8.49;98.86;98595.06;8501089;27;20409;-74
2022/04/25 12:59:52;;;;;;;43.15;26.70;;;;;;;8.74;97.90;98597.13;8500660;27;20086;-74
2022/04/25 13:04:13;;;;;;;36.08;22.23;;;;;;;9.07;96.22;98599.50;8501081;27;20095;-74
2022/04/25 13:08:13;;;;;;;38.65;23.88;;;;;;;9.16;95.08;98600.31;8500206;27;20126;-74
2022/04/25 13:12:16;;;;;;;42.28;26.38;;;;;;;9.19;95.46;98613.19;8500556;27;20541;-74
2022/04/25 13:16:17;;;;;;;35.15;21.90;;;;;;;9.21;94.57;98605.56;8463971;27;20382;-75
2022/04/25 13:20:20;;;;;;;30.33;21.08;;;;;;;9.15;94.25;98617.56;8500213;27;20130;-74
2022/04/25 13:24:21;;;;;;;32.47;20.80;;;;;;;9.34;94.82;98620.84;8500408;27;20416;-75
2022/04/25 13:28:23;;;;;;;38.00;21.67;;;;;;;9.27;94.68;98623.97;8499759;27;20288;-75
2022/04/25 13:32:24;;;;;;;26.90;17.55;;;;;;;9.10;94.36;98625.78;8481253;27;20499;-74
2022/04/25 13:36:26;;;;;;;24.50;15.85;;;;;;;8.89;94.60;98631.72;8499935;27;20350;-74
2022/04/25 13:40:26;;;;;;;32.00;18.60;;;;;;;8.87;94.95;98633.16;8480803;27;20392;-75
2022/04/25 13:44:28;;;;;;;27.77;17.13;;;;;;;8.93;95.11;98636.50;8499185;27;20047;-75
2022/04/25 13:48:29;;;;;;;27.77;16.55;;;;;;;8.99;94.27;98646.03;8498916;27;20075;-75
2022/04/25 13:52:30;;;;;;;31.65;15.90;;;;;;;8.86;94.11;98653.91;8499284;27;20035;-75
2022/04/25 13:56:31;;;;;;;28.13;14.88;;;;;;;8.87;94.18;98655.50;8462437;27;20131;-75
2022/04/25 14:00:32;;;;;;;21.15;14.00;;;;;;;8.82;93.51;98663.69;8480291;27;20385;-75
2022/04/25 14:04:33;;;;;;;23.52;14.70;;;;;;;8.76;93.46;98669.50;8498991;27;20043;-75
2022/04/25 14:08:35;;;;;;;22.17;13.82;;;;;;;8.75;93.40;98676.78;8462494;27;20512;-74
2022/04/25 14:12:37;;;;;;;22.45;13.27;;;;;;;8.78;93.81;98684.22;8498844;27;20043;-75
2022/04/25 14:16:39;;;;;;;24.38;13.80;;;;;;;8.78;93.54;98686.94;8445721;27;20051;-75
2022/04/25 14:20:41;;;;;;;23.90;14.20;;;;;;;8.82;93.31;98690.63;8498573;27;20059;-74
2022/04/25 14:24:42;;;;;;;27.63;16.90;;;;;;;8.74;93.68;98694.03;8498441;27;20072;-74
2022/04/25 14:28:44;;;;;;;29.05;15.75;;;;;;;8.73;93.96;98688.94;8497683;27;20446;-74
2022/04/25 14:32:46;;;;;;;29.35;15.95;;;;;;;8.69;94.26;98680.69;8497882;27;20047;-75
2022/04/25 14:36:46;;;;;;;26.27;14.93;;;;;;;8.57;95.10;98688.53;8497472;27;20081;-74
2022/04/25 14:40:55;;;;;;;27.70;16.05;;;;;;;8.50;95.57;98693.56;8497372;27;20501;-74
2022/04/25 14:44:56;;;;;;;22.37;14.13;;;;;;;8.45;95.90;98690.97;8497445;27;20047;-75
2022/04/25 14:48:57;;;;;;;20.42;13.25;;;;;;;8.39;96.25;98703.75;8443799;27;20050;-74
2022/04/25 14:57:17;;;;;;;21.60;13.43;;;;;;;8.30;96.65;98705.56;8469107;27;20103;-75
2022/04/25 15:01:18;;;;;;;20.70;13.20;;;;;;;8.32;96.62;98702.56;8518821;27;20103;-75
2022/04/25 15:05:19;;;;;;;24.80;12.77;;;;;;;8.39;96.43;98711.03;8524437;27;20038;-74
2022/04/25 15:09:21;;;;;;;20.63;12.10;;;;;;;8.50;96.06;98720.47;8526227;27;20076;-74
2022/04/25 15:13:22;;;;;;;26.00;13.40;;;;;;;8.60;95.31;98725.59;8463184;27;20046;-75
2022/04/25 15:17:23;;;;;;;23.65;13.50;;;;;;;8.63;95.34;98735.75;8502157;27;20057;-75
2022/04/25 15:21:28;;;;;;;21.25;13.70;;;;;;;8.57;95.13;98736.97;8512479;27;20043;-74
2022/04/25 15:25:30;;;;;;;23.55;12.98;;;;;;;8.51;94.74;98738.22;8483842;27;20126;-74
2022/04/25 15:29:32;;;;;;;18.70;12.15;;;;;;;8.45;95.27;98742.09;8520204;27;20401;-74
2022/04/25 15:33:33;;;;;;;24.17;12.98;;;;;;;8.35;95.01;98750.41;8510608;27;20394;-74
2022/04/25 15:37:34;;;;;;;21.02;13.40;;;;;;;8.23;95.42;98742.03;8500410;27;20070;-75
2022/04/25 15:41:35;;;;;;;22.73;13.43;;;;;;;8.25;96.03;98750.59;8475991;27;20046;-75
2022/04/25 15:45:40;;;;;;;24.83;13.85;;;;;;;8.27;95.99;98748.38;8528082;27;20049;-75
2022/04/25 15:49:41;;;;;;;27.05;14.48;;;;;;;8.28;96.04;98760.75;8527716;27;20055;-75
2022/04/25 15:58:02;;;;;;;28.75;15.27;;;;;;;8.29;96.46;98756.97;8523385;27;20043;-81
2022/04/25 16:02:03;;;;;;;24.85;15.50;;;;;;;8.26;96.77;98768.31;8459947;27;20118;-74
2022/04/25 16:06:04;;;;;;;40.50;22.10;;;;;;;8.30;96.44;98769.34;8517171;27;20071;-74
2022/04/25 16:10:08;;;;;;;26.13;15.75;;;;;;;8.28;96.43;98774.19;8499725;27;20412;-75
2022/04/25 16:14:09;;;;;;;28.38;15.45;;;;;;;8.33;96.56;98779.50;8511600;27;20445;-75
2022/04/25 16:18:10;;;;;;;28.02;16.92;;;;;;;8.32;96.69;98783.28;8488119;27;20055;-74
2022/04/25 16:22:12;;;;;;;27.27;15.63;;;;;;;8.32;96.97;98783.28;8505326;27;20050;-75
2022/04/25 16:26:13;;;;;;;27.85;16.73;;;;;;;8.26;96.77;98785.25;8498642;27;20047;-74
2022/04/25 16:30:14;;;;;;;26.48;15.50;;;;;;;8.18;97.10;98783.28;8495308;28;20103;-74
2022/04/25 16:34:15;;;;;;;26.00;16.00;;;;;;;8.15;97.24;98788.44;8498054;27;20043;-75
2022/04/25 16:38:16;;;;;;;29.40;15.07;;;;;;;8.13;97.25;98793.34;8514738;27;20126;-75
2022/04/25 16:42:17;;;;;;;26.92;15.38;;;;;;;8.13;97.28;98801.41;8508691;27;20059;-74
2022/04/25 16:46:18;;;;;;;34.13;15.55;;;;;;;8.14;97.29;98803.00;8523833;27;20039;-75
2022/04/25 16:50:20;;;;;;;27.85;15.55;;;;;;;8.11;97.59;98803.59;8491258;27;20046;-74
2022/04/25 16:54:22;;;;;;;30.17;16.55;;;;;;;8.09;97.78;98803.88;8485868;27;20038;-75
2022/04/25 16:58:23;;;;;;;25.00;15.57;;;;;;;8.07;97.80;98804.19;8449397;27;20054;-75
2022/04/25 17:02:25;;;;;;;31.05;16.52;;;;;;;7.99;98.33;98807.56;8503253;27;20071;-76
2022/04/25 17:06:32;;;;;;;23.92;15.05;;;;;;;8.00;98.10;98814.56;8521785;27;20476;-75
2022/04/25 17:10:33;;;;;;;24.38;14.40;;;;;;;7.99;98.37;98812.94;8526848;27;20051;-74
2022/04/25 17:14:35;;;;;;;29.67;17.08;;;;;;;7.94;98.60;98825.69;8456987;28;20044;-74
2022/04/25 17:18:36;;;;;;;34.50;15.88;;;;;;;7.91;98.46;98827.09;8494267;27;20047;-74
2022/04/25 17:22:38;;;;;;;30.98;15.60;;;;;;;7.88;98.55;98833.06;8513877;27;20129;-75
2022/04/25 17:26:38;;;;;;;31.50;15.15;;;;;;;7.86;98.35;98840.63;8518346;27;20043;-74
2022/04/25 17:30:40;;;;;;;26.00;15.35;;;;;;;7.85;98.50;98844.41;8457228;28;20448;-74
